createdAt,value
2023-04-25T00:01:36.939Z,100048.81
2023-04-25T00:04:04.146Z,100049.19
2023-04-25T00:06:32.695Z,100050.00
2023-04-25T00:08:59.106Z,100050.94
2023-04-25T00:11:25.507Z,100049.75
2023-04-25T00:13:51.881Z,100055.25
2023-04-25T00:16:18.322Z,100043.34
2023-04-25T00:18:44.825Z,100043.50
2023-04-25T00:21:11.587Z,100049.84
2023-04-25T00:23:38.027Z,100056.09
2023-04-25T00:26:04.414Z,100046.31
2023-04-25T00:28:30.825Z,100047.69
2023-04-25T00:30:57.193Z,100042.94
2023-04-25T00:33:23.569Z,100050.75
2023-04-25T00:35:49.952Z,100053.66
2023-04-25T00:38:16.642Z,100040.16
2023-04-25T00:40:44.631Z,100041.47
2023-04-25T00:43:10.996Z,100035.25
2023-04-25T00:45:39.567Z,100034.81
2023-04-25T00:48:06.478Z,100034.25
2023-04-25T00:50:36.911Z,100040.53
2023-04-25T00:53:04.208Z,100029.84
2023-04-25T00:55:32.387Z,100039.28
2023-04-25T00:57:59.007Z,100038.59
2023-04-25T01:02:53.360Z,100043.22
2023-04-25T01:05:19.884Z,100037.03
2023-04-25T01:07:46.522Z,100034.00
2023-04-25T01:10:12.885Z,100029.00
2023-04-25T01:12:39.313Z,100026.97
2023-04-25T01:15:06.166Z,100036.97
2023-04-25T01:17:33.089Z,100028.88
2023-04-25T01:19:59.690Z,100019.22
2023-04-25T01:22:26.770Z,100021.22
2023-04-25T01:24:53.244Z,100021.81
2023-04-25T01:27:19.812Z,100021.53
2023-04-25T01:29:46.733Z,100007.53
2023-04-25T01:32:14.806Z,100021.53
2023-04-25T01:34:41.267Z,100020.69
2023-04-25T01:37:07.636Z,100020.22
2023-04-25T01:39:34.210Z,100022.34
2023-04-25T01:42:01.064Z,100024.44
2023-04-25T01:44:27.560Z,100020.13
2023-04-25T01:46:54.581Z,100021.63
2023-04-25T01:49:21.239Z,100025.00
2023-04-25T01:51:47.598Z,100019.78
2023-04-25T01:54:14.627Z,100018.84
2023-04-25T01:56:41.215Z,100024.00
2023-04-25T01:59:07.628Z,100018.59
2023-04-25T02:01:34.168Z,100028.09
2023-04-25T02:04:00.845Z,100022.47
2023-04-25T02:06:27.502Z,100019.38
2023-04-25T02:08:53.875Z,100026.66
2023-04-25T02:11:20.332Z,100035.78
2023-04-25T02:13:46.794Z,100026.75
2023-04-25T02:16:14.162Z,100029.75
2023-04-25T02:18:40.622Z,100023.22
2023-04-25T02:21:07.227Z,100020.75
2023-04-25T02:23:33.675Z,100030.03
2023-04-25T02:26:00.180Z,100017.78
2023-04-25T02:28:29.233Z,100016.88
2023-04-25T02:30:55.786Z,100014.00
2023-04-25T02:33:22.367Z,100015.19
2023-04-25T02:35:48.929Z,100024.78
2023-04-25T02:38:15.687Z,100023.31
2023-04-25T02:40:42.103Z,100020.22
2023-04-25T02:43:08.690Z,100027.78
2023-04-25T02:45:36.011Z,100020.28
2023-04-25T02:48:03.846Z,100013.88
2023-04-25T02:50:30.288Z,100020.75
2023-04-25T02:52:56.747Z,100031.31
2023-04-25T02:55:23.977Z,100026.31
2023-04-25T02:57:51.365Z,100028.44
2023-04-25T03:00:17.778Z,100014.84
2023-04-25T03:02:44.344Z,100013.13
2023-04-25T03:05:10.820Z,100015.91
2023-04-25T03:07:37.188Z,100020.19
2023-04-25T03:10:03.785Z,100018.03
2023-04-25T03:12:30.146Z,100025.41
2023-04-25T03:14:56.515Z,100014.53
2023-04-25T03:17:22.938Z,100020.88
2023-04-25T03:19:49.360Z,100026.88
2023-04-25T03:22:16.132Z,100022.84
2023-04-25T03:24:42.513Z,100019.81
2023-04-25T03:27:09.101Z,100020.13
2023-04-25T03:29:35.502Z,100030.53
2023-04-25T03:32:01.919Z,100030.13
2023-04-25T03:34:29.020Z,100022.31
2023-04-25T03:36:55.390Z,100021.53
2023-04-25T03:39:21.765Z,100029.88
2023-04-25T03:41:48.166Z,100034.59
2023-04-25T03:44:14.871Z,100025.41
2023-04-25T03:46:41.471Z,100022.22
2023-04-25T03:49:07.940Z,100020.72
2023-04-25T03:51:34.288Z,100028.06
2023-04-25T03:54:00.654Z,100036.25
2023-04-25T03:56:27.047Z,100034.09
2023-04-25T03:58:53.586Z,100025.00
2023-04-25T04:01:20.383Z,100039.03
2023-04-25T04:03:46.903Z,100032.78
2023-04-25T04:06:14.672Z,100036.91
2023-04-25T04:08:41.065Z,100047.75
2023-04-25T04:11:07.447Z,100045.09
2023-04-25T04:13:33.835Z,100045.50
2023-04-25T04:16:00.341Z,100049.59
2023-04-25T04:18:26.837Z,100047.59
2023-04-25T04:20:53.200Z,100059.97
2023-04-25T04:23:20.945Z,100067.97
2023-04-25T04:25:47.905Z,100059.19
2023-04-25T04:28:14.358Z,100053.94
2023-04-25T04:30:42.108Z,100062.19
2023-04-25T04:33:08.656Z,100070.00
2023-04-25T04:35:35.057Z,100062.31
2023-04-25T04:38:01.458Z,100059.88
2023-04-25T04:40:27.916Z,100057.88
2023-04-25T04:42:57.368Z,100058.38
2023-04-25T04:45:24.648Z,100081.38
2023-04-25T04:47:51.270Z,100067.38
2023-04-25T04:50:17.727Z,100066.34
2023-04-25T04:52:44.101Z,100073.50
2023-04-25T04:55:10.651Z,100075.44
2023-04-25T04:57:37.888Z,100079.38
2023-04-25T05:00:11.720Z,100079.59
2023-04-25T05:02:39.611Z,100077.13
2023-04-25T05:05:06.902Z,100072.09
2023-04-25T05:07:33.246Z,100085.44
2023-04-25T05:09:59.610Z,100076.75
2023-04-25T05:12:26.079Z,100079.09
2023-04-25T05:14:52.428Z,100088.31
2023-04-25T05:17:18.784Z,100092.28
2023-04-25T05:19:45.122Z,100087.00
2023-04-25T05:22:11.542Z,100088.94
2023-04-25T05:24:37.876Z,100088.50
2023-04-25T05:27:04.304Z,100091.44
2023-04-25T05:29:30.664Z,100084.94
2023-04-25T05:31:57.053Z,100077.56
2023-04-25T05:34:23.471Z,100086.66
2023-04-25T05:36:49.843Z,100077.88
2023-04-25T05:39:17.824Z,100093.25
2023-04-25T05:41:44.599Z,100089.13
2023-04-25T05:44:11.450Z,100091.59
2023-04-25T05:46:37.927Z,100104.31
2023-04-25T05:49:04.315Z,100101.56
2023-04-25T05:51:30.710Z,100098.16
2023-04-25T05:53:57.069Z,100109.38
2023-04-25T05:56:23.467Z,100095.38
2023-04-25T05:58:49.859Z,100099.91
2023-04-25T06:01:16.861Z,100101.91
2023-04-25T06:03:46.037Z,100099.22
2023-04-25T06:06:12.944Z,100108.97
2023-04-25T06:08:39.473Z,100122.00
2023-04-25T06:11:05.902Z,100112.41
2023-04-25T06:13:32.407Z,100123.75
2023-04-25T06:15:58.832Z,100129.53
2023-04-25T06:18:25.262Z,100127.44
2023-04-25T06:20:51.724Z,100127.94
2023-04-25T06:23:18.096Z,100123.09
2023-04-25T06:25:44.717Z,100125.38
2023-04-25T06:28:11.090Z,100128.28
2023-04-25T06:30:37.471Z,100125.84
2023-04-25T06:33:04.015Z,100135.44
2023-04-25T06:35:30.685Z,100125.84
2023-04-25T06:37:57.075Z,100135.94
2023-04-25T06:40:23.607Z,100119.25
2023-04-25T06:42:50.062Z,100121.47
2023-04-25T06:45:16.505Z,100127.66
2023-04-25T06:47:42.867Z,100131.16
2023-04-25T06:50:09.618Z,100133.13
2023-04-25T06:52:35.966Z,100135.63
2023-04-25T06:55:02.550Z,100122.66
2023-04-25T06:57:28.965Z,100138.97
2023-04-25T06:59:55.351Z,100127.69
2023-04-25T07:02:22.751Z,100127.97
2023-04-25T07:04:49.397Z,100135.22
2023-04-25T07:07:16.140Z,100137.81
2023-04-25T07:09:42.484Z,100142.09
2023-04-25T07:12:08.841Z,100154.78
2023-04-25T07:14:36.194Z,100157.22
2023-04-25T07:17:02.675Z,100157.41
2023-04-25T07:19:30.732Z,100161.78
2023-04-25T07:21:57.134Z,100165.53
2023-04-25T07:24:23.741Z,100171.19
2023-04-25T07:26:50.217Z,100164.13
2023-04-25T07:29:17.630Z,100168.84
2023-04-25T07:31:44.010Z,100177.38
2023-04-25T07:34:10.972Z,100174.22
2023-04-25T07:36:37.342Z,100175.81
2023-04-25T07:39:04.162Z,100186.31
2023-04-25T07:41:30.527Z,100182.84
2023-04-25T07:43:56.899Z,100181.84
2023-04-25T07:46:23.285Z,100176.53
2023-04-25T07:48:49.850Z,100176.63
2023-04-25T07:51:16.562Z,100190.47
2023-04-25T07:53:43.255Z,100204.94
2023-04-25T07:56:10.142Z,100191.03
2023-04-25T07:58:36.627Z,100205.03
2023-04-25T08:01:03.172Z,100186.47
2023-04-25T08:03:29.782Z,100204.38
2023-04-25T08:05:56.631Z,100205.06
2023-04-25T08:08:23.110Z,100206.22
2023-04-25T08:10:49.588Z,100215.22
2023-04-25T08:13:15.961Z,100208.25
2023-04-25T08:15:42.395Z,100208.09
2023-04-25T08:18:09.030Z,100203.34
2023-04-25T08:20:35.579Z,100214.34
2023-04-25T08:23:01.950Z,100229.81
2023-04-25T08:25:28.404Z,100229.69
2023-04-25T08:27:54.783Z,100225.50
2023-04-25T08:30:22.176Z,100234.09
2023-04-25T08:32:48.810Z,100235.28
2023-04-25T08:35:15.219Z,100241.91
2023-04-25T08:37:41.621Z,100238.84
2023-04-25T08:40:13.032Z,100247.59
2023-04-25T08:42:41.814Z,100239.72
2023-04-25T08:45:09.431Z,100248.47
2023-04-25T08:47:38.268Z,100259.97
2023-04-25T08:50:06.502Z,100263.91
2023-04-25T08:52:38.967Z,100243.22
2023-04-25T08:55:07.885Z,100272.25
2023-04-25T08:57:34.549Z,100260.25
2023-04-25T09:00:02.116Z,100251.91
2023-04-25T09:02:28.712Z,100269.22
2023-04-25T09:04:55.947Z,100262.66
2023-04-25T09:07:22.573Z,100252.94
2023-04-25T09:09:48.999Z,100273.44
2023-04-25T09:12:15.618Z,100258.28
2023-04-25T09:14:43.387Z,100274.09
2023-04-25T09:17:09.846Z,100268.25
2023-04-25T09:19:41.781Z,100272.97
2023-04-25T09:22:09.113Z,100269.97
2023-04-25T09:24:37.608Z,100280.69
2023-04-25T09:27:09.478Z,100280.72
2023-04-25T09:29:38.656Z,100282.88
2023-04-25T09:32:14.413Z,100277.41
2023-04-25T09:34:45.036Z,100270.84
2023-04-25T09:37:12.853Z,100278.44
2023-04-25T09:39:39.627Z,100285.91
2023-04-25T09:42:06.561Z,100288.97
2023-04-25T09:44:33.012Z,100294.13
2023-04-25T09:47:00.171Z,100296.94
2023-04-25T09:49:28.581Z,100307.97
2023-04-25T09:51:59.509Z,100299.09
2023-04-25T09:54:26.828Z,100289.50
2023-04-25T09:56:54.655Z,100293.31
2023-04-25T09:59:22.830Z,100317.84
2023-04-25T10:01:51.489Z,100302.59
2023-04-25T10:04:25.525Z,100298.31
2023-04-25T10:06:54.402Z,100301.19
2023-04-25T10:09:22.165Z,100300.81
2023-04-25T10:11:52.037Z,100303.38
2023-04-25T10:14:19.517Z,100304.34
2023-04-25T10:16:46.652Z,100321.50
2023-04-25T10:19:14.207Z,100319.09
2023-04-25T10:21:49.371Z,100304.63
2023-04-25T10:24:16.387Z,100309.44
2023-04-25T10:26:43.109Z,100330.31
2023-04-25T10:29:10.491Z,100321.44
2023-04-25T10:31:46.420Z,100311.06
2023-04-25T10:34:12.883Z,100311.84
2023-04-25T10:36:39.380Z,100316.53
2023-04-25T10:39:10.271Z,100317.31
2023-04-25T10:42:09.296Z,100320.09
2023-04-25T10:44:38.406Z,100320.00
2023-04-25T10:47:07.694Z,100334.44
2023-04-25T10:49:43.738Z,100334.78
2023-04-25T10:52:30.675Z,100314.31
2023-04-25T10:54:58.643Z,100324.84
2023-04-25T10:57:32.605Z,100325.00
2023-04-25T11:00:07.512Z,100328.78
2023-04-25T11:02:38.143Z,100340.31
2023-04-25T11:05:04.695Z,100322.94
2023-04-25T11:08:07.779Z,100353.66
2023-04-25T11:10:37.496Z,100367.72
2023-04-25T11:13:04.636Z,100370.66
2023-04-25T11:15:31.093Z,100402.38
2023-04-25T11:17:57.771Z,100365.09
2023-04-25T11:20:26.938Z,100373.91
2023-04-25T11:22:53.427Z,100376.38
2023-04-25T11:25:21.175Z,100372.50
2023-04-25T11:27:52.233Z,100381.59
2023-04-25T11:30:19.378Z,100379.03
2023-04-25T11:32:46.498Z,100377.28
2023-04-25T11:35:13.842Z,100374.31
2023-04-25T11:37:41.450Z,100372.28
2023-04-25T11:40:09.920Z,100401.53
2023-04-25T11:42:44.065Z,100414.66
2023-04-25T11:45:11.557Z,100385.50
2023-04-25T11:47:38.501Z,100394.41
2023-04-25T11:50:07.006Z,100418.38
2023-04-25T11:52:38.048Z,100410.69
2023-04-25T11:55:18.931Z,100383.53
2023-04-25T11:57:47.837Z,100390.31
2023-04-25T12:00:18.906Z,100393.66
2023-04-25T12:02:48.359Z,100400.19
2023-04-25T12:05:31.879Z,100406.38
2023-04-25T12:08:11.035Z,100401.44
2023-04-25T12:10:40.607Z,100392.78
2023-04-25T12:13:24.995Z,100417.34
2023-04-25T12:15:51.986Z,100401.03
2023-04-25T12:18:24.188Z,100429.06
2023-04-25T12:20:50.782Z,100401.59
2023-04-25T12:23:17.137Z,100412.97
2023-04-25T12:25:45.708Z,100402.16
2023-04-25T12:28:20.669Z,100411.41
2023-04-25T12:31:01.605Z,100405.66
2023-04-25T12:33:31.199Z,100406.97
2023-04-25T12:35:58.757Z,100412.06
2023-04-25T12:38:30.972Z,100413.16
2023-04-25T12:40:58.601Z,100411.41
2023-04-25T12:43:25.569Z,100428.66
2023-04-25T12:45:53.429Z,100423.91
2023-04-25T12:48:21.112Z,100417.34
2023-04-25T12:50:51.662Z,100420.25
2023-04-25T12:53:22.696Z,100427.31
2023-04-25T12:55:49.432Z,100419.22
2023-04-25T12:58:17.088Z,100418.53
2023-04-25T13:00:44.025Z,100406.56
2023-04-25T13:03:12.093Z,100416.72
2023-04-25T13:05:39.271Z,100421.19
2023-04-25T13:08:05.802Z,100417.28
2023-04-25T13:10:32.383Z,100406.38
2023-04-25T13:12:58.756Z,100427.25
2023-04-25T13:15:33.595Z,100423.09
2023-04-25T13:18:00.144Z,100421.22
2023-04-25T13:20:26.611Z,100440.59
2023-04-25T13:22:52.983Z,100443.28
2023-04-25T13:25:19.783Z,100420.53
2023-04-25T13:27:46.298Z,100428.38
2023-04-25T13:30:13.206Z,100441.47
2023-04-25T13:32:40.767Z,100422.50
2023-04-25T13:35:10.898Z,100431.03
2023-04-25T13:37:38.136Z,100425.41
2023-04-25T13:40:07.356Z,100436.50
2023-04-25T13:42:33.733Z,100440.00
2023-04-25T13:45:00.099Z,100434.28
2023-04-25T13:47:27.485Z,100459.84
2023-04-25T13:49:54.291Z,100450.53
2023-04-25T13:52:20.696Z,100440.28
2023-04-25T13:54:47.546Z,100429.25
2023-04-25T13:57:14.128Z,100427.06
2023-04-25T13:59:41.668Z,100439.34
2023-04-25T14:02:08.396Z,100446.44
2023-04-25T14:04:34.769Z,100436.59
2023-04-25T14:07:01.692Z,100437.53
2023-04-25T14:09:28.305Z,100482.19
2023-04-25T14:11:55.068Z,100475.75
2023-04-25T14:14:22.173Z,100458.16
2023-04-25T14:16:49.486Z,100449.63
2023-04-25T14:19:16.413Z,100456.38
2023-04-25T14:21:43.578Z,100479.31
2023-04-25T14:24:11.869Z,100475.88
2023-04-25T14:26:38.843Z,100483.84
2023-04-25T14:29:08.399Z,100480.13
2023-04-25T14:31:35.388Z,100472.53
2023-04-25T14:34:03.322Z,100475.31
2023-04-25T14:36:29.958Z,100472.25
2023-04-25T14:38:56.324Z,100480.72
2023-04-25T14:41:24.034Z,100472.31
2023-04-25T14:43:50.810Z,100482.13
2023-04-25T14:46:17.588Z,100480.09
2023-04-25T14:48:44.165Z,100485.41
2023-04-25T14:51:10.617Z,100503.88
2023-04-25T14:53:37.086Z,100493.06
2023-04-25T14:56:03.859Z,100484.66
2023-04-25T14:58:30.214Z,100483.63
2023-04-25T15:00:56.682Z,100498.72
2023-04-25T15:03:23.980Z,100506.81
2023-04-25T15:05:50.510Z,100501.72
2023-04-25T15:08:16.887Z,100499.00
2023-04-25T15:10:43.307Z,100490.28
2023-04-25T15:13:11.428Z,100492.09
2023-04-25T15:15:37.797Z,100502.56
2023-04-25T15:18:04.369Z,100498.66
2023-04-25T15:20:31.039Z,100499.53
2023-04-25T15:22:57.968Z,100493.94
2023-04-25T15:25:24.563Z,100482.28
2023-04-25T15:27:52.651Z,100493.56
2023-04-25T15:30:20.477Z,100496.03
2023-04-25T15:32:47.824Z,100486.03
2023-04-25T15:35:15.834Z,100505.38
2023-04-25T15:37:42.237Z,100497.84
2023-04-25T15:40:12.096Z,100502.38
2023-04-25T15:42:39.936Z,100493.38
2023-04-25T15:45:08.287Z,100509.63
2023-04-25T15:47:36.096Z,100506.97
2023-04-25T15:50:03.852Z,100505.72
2023-04-25T15:52:39.612Z,100499.25
2023-04-25T15:55:06.440Z,100510.31
2023-04-25T15:57:34.003Z,100507.41
2023-04-25T16:00:00.397Z,100503.38
2023-04-25T16:02:26.923Z,100513.03
2023-04-25T16:04:53.732Z,100511.38
2023-04-25T16:07:20.223Z,100508.50
2023-04-25T16:09:46.860Z,100501.91
2023-04-25T16:12:13.762Z,100508.09
2023-04-25T16:14:40.505Z,100520.88
2023-04-25T16:17:06.870Z,100512.94
2023-04-25T16:19:33.322Z,100534.16
2023-04-25T16:21:59.726Z,100522.25
2023-04-25T16:24:26.076Z,100507.72
2023-04-25T16:26:52.438Z,100512.72
2023-04-25T16:29:18.816Z,100516.31
2023-04-25T16:31:47.111Z,100507.97
2023-04-25T16:34:15.208Z,100542.00
2023-04-25T16:36:41.721Z,100528.41
2023-04-25T16:39:08.654Z,100537.34
2023-04-25T16:41:35.590Z,100523.84
2023-04-25T16:44:01.976Z,100532.41
2023-04-25T16:46:28.433Z,100530.91
2023-04-25T16:48:54.884Z,100535.41
2023-04-25T16:51:21.239Z,100520.38
2023-04-25T16:53:48.475Z,100527.88
2023-04-25T16:56:14.884Z,100528.19
2023-04-25T16:58:41.338Z,100528.19
2023-04-25T17:01:08.101Z,100528.34
2023-04-25T17:03:35.670Z,100534.28
2023-04-25T17:06:02.234Z,100530.91
2023-04-25T17:08:29.351Z,100546.44
2023-04-25T17:10:55.882Z,100537.59
2023-04-25T17:13:22.255Z,100529.34
2023-04-25T17:15:57.554Z,100536.50
2023-04-25T17:18:24.615Z,100534.19
2023-04-25T17:20:51.188Z,100543.16
2023-04-25T17:23:18.795Z,100546.13
2023-04-25T17:25:45.170Z,100536.22
2023-04-25T17:28:12.947Z,100556.69
2023-04-25T17:30:40.240Z,100563.78
2023-04-25T17:33:07.166Z,100566.31
2023-04-25T17:35:40.467Z,100559.63
2023-04-25T17:38:06.935Z,100554.22
2023-04-25T17:40:33.352Z,100557.53
2023-04-25T17:42:59.900Z,100571.69
2023-04-25T17:45:26.340Z,100561.31
2023-04-25T17:47:52.758Z,100560.63
2023-04-25T17:50:19.482Z,100565.03
2023-04-25T17:52:48.116Z,100571.81
2023-04-25T17:55:14.509Z,100566.97
2023-04-25T17:57:40.904Z,100573.19
2023-04-25T18:00:09.105Z,100575.44
2023-04-25T18:02:36.610Z,100573.41
2023-04-25T18:05:09.839Z,100573.13
2023-04-25T18:07:36.866Z,100584.19
2023-04-25T18:10:09.020Z,100584.38
2023-04-25T18:12:35.852Z,100582.16
2023-04-25T18:15:06.722Z,100585.78
2023-04-25T18:17:34.595Z,100585.78
2023-04-25T18:20:01.842Z,100588.69
2023-04-25T18:22:28.769Z,100590.84
2023-04-25T18:24:55.292Z,100594.94
2023-04-25T18:27:21.843Z,100613.81
2023-04-25T18:29:48.282Z,100602.97
2023-04-25T18:32:14.806Z,100608.19
2023-04-25T18:34:43.737Z,100606.91
2023-04-25T18:37:11.786Z,100614.50
2023-04-25T18:39:38.177Z,100618.88
2023-04-25T18:42:06.992Z,100621.59
2023-04-25T18:44:36.505Z,100634.13
2023-04-25T18:47:03.010Z,100631.84
2023-04-25T18:49:29.463Z,100638.53
2023-04-25T18:51:57.342Z,100636.44
2023-04-25T18:54:23.736Z,100645.03
2023-04-25T18:56:50.102Z,100651.25
2023-04-25T18:59:17.944Z,100653.34
2023-04-25T19:01:44.620Z,100659.09
2023-04-25T19:04:11.493Z,100655.72
2023-04-25T19:06:38.027Z,100655.16
2023-04-25T19:09:04.455Z,100652.38
2023-04-25T19:11:30.917Z,100647.28
2023-04-25T19:13:57.348Z,100645.75
2023-04-25T19:16:25.966Z,100656.50
2023-04-25T19:18:54.823Z,100660.13
2023-04-25T19:21:21.428Z,100665.16
2023-04-25T19:23:47.818Z,100660.34
2023-04-25T19:26:14.187Z,100666.88
2023-04-25T19:28:43.188Z,100679.50
2023-04-25T19:31:10.032Z,100672.84
2023-04-25T19:33:36.501Z,100671.75
2023-04-25T19:36:03.101Z,100678.03
2023-04-25T19:38:29.504Z,100674.47
2023-04-25T19:40:56.327Z,100669.94
2023-04-25T19:43:22.682Z,100678.72
2023-04-25T19:45:49.110Z,100687.19
2023-04-25T19:48:15.509Z,100676.50
2023-04-25T19:50:41.896Z,100675.88
2023-04-25T19:53:09.428Z,100683.69
2023-04-25T19:55:35.793Z,100684.34
2023-04-25T19:58:03.290Z,100682.06
2023-04-25T20:00:29.750Z,100687.34
2023-04-25T20:02:56.500Z,100681.16
2023-04-25T20:05:23.501Z,100687.91
2023-04-25T20:07:50.404Z,100686.75
2023-04-25T20:10:17.376Z,100684.97
2023-04-25T20:12:44.397Z,100689.06
2023-04-25T20:15:11.721Z,100697.16
2023-04-25T20:17:42.424Z,100686.69
2023-04-25T20:20:10.751Z,100685.94
2023-04-25T20:22:38.751Z,100689.78
2023-04-25T20:25:06.940Z,100688.72
2023-04-25T20:27:33.435Z,100703.25
2023-04-25T20:30:03.449Z,100704.31
2023-04-25T20:32:32.101Z,100707.88
2023-04-25T20:34:58.499Z,100698.59
2023-04-25T20:37:24.839Z,100708.06
2023-04-25T20:39:51.445Z,100703.75
2023-04-25T20:42:17.867Z,100705.78
2023-04-25T20:44:44.237Z,100698.16
2023-04-25T20:47:10.600Z,100704.75
2023-04-25T20:49:36.996Z,100708.16
2023-04-25T20:52:03.430Z,100722.25
2023-04-25T20:54:30.973Z,100717.28
2023-04-25T20:56:57.631Z,100714.38
2023-04-25T20:59:25.367Z,100712.94
2023-04-25T21:01:54.085Z,100719.34
2023-04-25T21:04:20.981Z,100727.22
2023-04-25T21:06:47.457Z,100734.00
2023-04-25T21:09:14.142Z,100735.97
2023-04-25T21:11:41.005Z,100717.50
2023-04-25T21:14:07.518Z,100723.97
2023-04-25T21:16:35.395Z,100717.72
2023-04-25T21:19:02.310Z,100719.06
2023-04-25T21:21:28.679Z,100721.78
2023-04-25T21:23:55.513Z,100720.78
2023-04-25T21:26:22.122Z,100720.16
2023-04-25T21:28:48.563Z,100729.47
2023-04-25T21:31:15.342Z,100721.34
2023-04-25T21:33:41.715Z,100726.09
2023-04-25T21:36:08.245Z,100730.41
2023-04-25T21:38:34.766Z,100735.56
2023-04-25T21:41:01.492Z,100741.94
2023-04-25T21:43:28.680Z,100739.41
2023-04-25T21:46:15.239Z,100746.34
2023-04-25T21:48:41.616Z,100748.81
2023-04-25T21:51:08.011Z,100746.03
2023-04-25T21:53:34.414Z,100746.50
2023-04-25T21:56:00.931Z,100754.28
2023-04-25T21:58:27.353Z,100754.19
2023-04-25T22:00:53.740Z,100757.47
2023-04-25T22:03:20.516Z,100751.28
2023-04-25T22:05:48.059Z,100758.06
2023-04-25T22:08:14.484Z,100754.88
2023-04-25T22:10:41.942Z,100759.19
2023-04-25T22:13:08.348Z,100769.66
2023-04-25T22:15:35.455Z,100771.97
2023-04-25T22:18:05.447Z,100771.31
2023-04-25T22:20:32.010Z,100767.41
2023-04-25T22:22:58.578Z,100765.97
2023-04-25T22:25:25.240Z,100784.41
2023-04-25T22:27:51.713Z,100786.75
2023-04-25T22:30:18.406Z,100788.84
2023-04-25T22:32:44.787Z,100793.44
2023-04-25T22:35:12.007Z,100787.97
2023-04-25T22:37:38.453Z,100792.00
2023-04-25T22:40:07.145Z,100795.44
2023-04-25T22:42:40.663Z,100795.94
2023-04-25T22:45:08.146Z,100798.75
2023-04-25T22:47:38.869Z,100799.81
2023-04-25T22:50:07.986Z,100800.06
2023-04-25T22:52:34.764Z,100801.09
2023-04-25T22:55:04.404Z,100796.91
2023-04-25T22:57:31.306Z,100806.72
2023-04-25T22:59:57.813Z,100802.94
2023-04-25T23:02:27.998Z,100805.75
2023-04-25T23:04:54.984Z,100809.88
2023-04-25T23:07:21.488Z,100814.25
2023-04-25T23:09:47.890Z,100806.84
2023-04-25T23:12:17.798Z,100810.38
2023-04-25T23:14:44.202Z,100803.03
2023-04-25T23:17:11.530Z,100814.19
2023-04-25T23:19:38.206Z,100821.03
2023-04-25T23:22:05.807Z,100811.59
2023-04-25T23:24:37.478Z,100813.88
2023-04-25T23:27:03.879Z,100803.41
2023-04-25T23:29:31.456Z,100811.38
2023-04-25T23:31:58.167Z,100808.78
2023-04-25T23:34:24.616Z,100827.03
2023-04-25T23:36:51.079Z,100820.38
2023-04-25T23:39:18.871Z,100817.84
2023-04-25T23:41:45.237Z,100823.75
2023-04-25T23:44:12.264Z,100820.38
2023-04-25T23:46:38.718Z,100828.63
2023-04-25T23:49:05.422Z,100831.00
2023-04-25T23:51:32.248Z,100845.94
2023-04-25T23:53:58.678Z,100842.75
2023-04-25T23:56:25.050Z,100849.34
2023-04-25T23:58:51.544Z,100839.66
